Time;durP1;ratioP1;P1;durP2;ratioP2;P2;SDS_P1;SDS_P2;PMS_P1;PMS_P2;Temp;Humidity;BMP_temperature;BMP_pressure;BME280_temperature;BME280_humidity;BME280_pressure;Samples;Min_cycle;Max_cycle;Signal;HPM_P1;HPM_P2
2021/07/01 00:00:12;;;;;;;4.10;3.70;;;17.20;99.90;;;;;;4982757;28;20513;-85
2021/07/01 00:02:40;;;;;;;5.50;4.23;;;17.10;99.90;;;;;;4983126;28;20405;-83
2021/07/01 00:05:11;;;;;;;5.80;4.40;;;17.10;99.90;;;;;;4966137;28;20428;-83
2021/07/01 00:07:42;;;;;;;5.63;4.23;;;17.10;99.90;;;;;;4970774;28;20981;-84
2021/07/01 00:10:14;;;;;;;5.70;5.10;;;17.20;99.90;;;;;;4987534;28;20449;-82
2021/07/01 00:12:42;;;;;;;6.40;5.20;;;17.30;99.90;;;;;;4969062;28;20482;-83
2021/07/01 00:15:13;;;;;;;6.87;5.53;;;17.30;99.90;;;;;;4968801;28;20776;-85
2021/07/01 00:17:42;;;;;;;6.67;5.53;;;17.20;99.90;;;;;;4982080;28;20445;-85
2021/07/01 00:20:11;;;;;;;10.73;5.60;;;17.10;99.90;;;;;;4968715;28;20508;-85
2021/07/01 00:22:41;;;;;;;9.30;7.40;;;17.20;99.90;;;;;;4966865;28;20493;-85
2021/07/01 00:25:12;;;;;;;6.67;5.97;;;17.20;99.90;;;;;;4981862;28;20421;-85
2021/07/01 00:27:40;;;;;;;14.23;6.00;;;17.10;99.90;;;;;;4963685;28;20450;-85
2021/07/01 00:30:11;;;;;;;9.63;6.77;;;17.10;99.90;;;;;;4964743;28;20477;-83
2021/07/01 00:32:40;;;;;;;8.40;7.27;;;17.00;99.90;;;;;;4964995;28;20429;-84
2021/07/01 00:35:09;;;;;;;10.70;7.00;;;17.00;99.90;;;;;;4962326;28;20530;-86
2021/07/01 00:37:38;;;;;;;7.80;6.17;;;17.00;99.90;;;;;;4979382;28;20737;-85
2021/07/01 00:40:10;;;;;;;5.67;5.07;;;16.90;99.90;;;;;;4961039;28;20468;-85
2021/07/01 00:42:38;;;;;;;6.03;4.50;;;17.00;99.90;;;;;;4960709;28;20413;-85
2021/07/01 00:45:08;;;;;;;6.40;5.80;;;17.00;99.90;;;;;;4960315;28;20996;-84
2021/07/01 00:47:37;;;;;;;6.97;5.20;;;17.10;99.90;;;;;;4959846;28;20413;-83
2021/07/01 00:50:08;;;;;;;6.33;4.93;;;17.20;99.90;;;;;;4965899;28;20555;-84
2021/07/01 00:52:37;;;;;;;6.47;5.67;;;17.20;99.90;;;;;;4967897;28;20425;-84
2021/07/01 00:55:09;;;;;;;5.93;4.23;;;17.30;99.90;;;;;;4970954;28;20585;-84
2021/07/01 00:57:39;;;;;;;6.47;4.77;;;17.20;99.90;;;;;;4974073;28;20413;-84
2021/07/01 01:00:21;;;;;;;6.07;5.47;;;17.20;99.90;;;;;;4993675;28;20441;-82
2021/07/01 01:02:49;;;;;;;5.57;4.30;;;17.20;99.90;;;;;;4981593;28;20421;-80
2021/07/01 01:05:31;;;;;;;6.63;5.20;;;17.20;99.90;;;;;;4996532;28;20406;-83
2021/07/01 01:08:00;;;;;;;8.00;5.50;;;17.10;99.90;;;;;;4985867;28;20480;-82
2021/07/01 01:10:30;;;;;;;6.77;4.73;;;17.10;99.90;;;;;;4978304;28;20478;-84
2021/07/01 01:13:23;;;;;;;9.33;5.70;;;17.20;99.90;;;;;;4980991;28;20433;-85
2021/07/01 01:16:23;;;;;;;8.93;5.20;;;17.10;99.90;;;;;;4977198;28;20418;-85
2021/07/01 01:18:52;;;;;;;6.73;5.17;;;17.20;99.90;;;;;;4979102;28;20467;-84
2021/07/01 01:21:25;;;;;;;6.80;5.80;;;17.20;99.90;;;;;;4978706;28;20432;-86
2021/07/01 01:23:55;;;;;;;7.40;5.73;;;17.20;99.90;;;;;;4962113;28;20491;-84
2021/07/01 01:26:24;;;;;;;9.27;6.70;;;17.10;99.90;;;;;;4979967;28;20418;-84
2021/07/01 01:28:53;;;;;;;7.10;5.80;;;17.10;99.90;;;;;;4961592;28;20445;-82
2021/07/01 01:31:24;;;;;;;9.57;7.63;;;17.20;99.90;;;;;;4977770;28;20501;-85
2021/07/01 01:33:53;;;;;;;10.10;5.70;;;17.20;99.90;;;;;;4960831;28;20439;-83
2021/07/01 01:36:22;;;;;;;7.60;5.90;;;17.30;99.90;;;;;;4959507;28;20866;-83
2021/07/01 01:38:54;;;;;;;8.87;6.50;;;17.30;99.90;;;;;;4961295;28;21018;-85
2021/07/01 01:41:32;;;;;;;9.30;7.00;;;17.40;99.90;;;;;;4962446;28;20478;-85
2021/07/01 01:44:01;;;;;;;9.57;6.60;;;17.40;99.90;;;;;;4961378;28;20422;-86
2021/07/01 01:46:36;;;;;;;10.17;5.87;;;17.40;99.90;;;;;;4979814;28;20398;-82
2021/07/01 01:49:07;;;;;;;9.10;5.73;;;17.30;99.90;;;;;;4962051;28;20462;-85
2021/07/01 01:51:38;;;;;;;9.00;5.80;;;17.20;99.90;;;;;;4961363;28;20513;-82
2021/07/01 01:54:08;;;;;;;9.03;6.47;;;17.20;99.90;;;;;;4961673;28;20455;-82
2021/07/01 01:56:46;;;;;;;8.63;5.80;;;17.10;99.90;;;;;;4972749;28;20423;-80
2021/07/01 01:59:54;;;;;;;7.30;5.20;;;17.00;99.90;;;;;;4959467;28;20451;-81
2021/07/01 02:02:41;;;;;;;10.70;5.23;;;16.90;99.90;;;;;;4999053;28;20829;-82
2021/07/01 02:05:39;;;;;;;9.17;6.43;;;16.80;99.90;;;;;;4984634;28;20405;-80
2021/07/01 02:08:09;;;;;;;5.47;4.80;;;16.80;99.90;;;;;;5001036;28;20441;-80
2021/07/01 02:10:39;;;;;;;8.30;5.83;;;16.70;99.90;;;;;;4984740;28;20454;-79
2021/07/01 02:13:11;;;;;;;6.43;5.77;;;16.80;99.90;;;;;;4984878;28;20398;-80
2021/07/01 02:15:58;;;;;;;7.60;5.30;;;16.80;99.90;;;;;;5001387;28;20388;-80
2021/07/01 02:18:28;;;;;;;6.47;5.67;;;16.80;99.90;;;;;;5000832;28;20450;-79
2021/07/01 02:20:56;;;;;;;7.87;5.50;;;16.80;99.90;;;;;;4984459;28;20457;-81
2021/07/01 02:23:26;;;;;;;7.30;5.23;;;16.80;99.90;;;;;;4984807;28;20781;-81
2021/07/01 02:25:58;;;;;;;8.67;6.00;;;16.70;99.90;;;;;;4984497;28;20450;-80
2021/07/01 02:28:26;;;;;;;6.23;4.57;;;16.70;99.90;;;;;;4984505;28;20433;-82
2021/07/01 02:31:13;;;;;;;7.70;4.47;;;16.80;99.90;;;;;;5001184;28;20445;-80
2021/07/01 02:33:42;;;;;;;5.80;4.80;;;16.70;99.90;;;;;;4984635;28;20435;-80
2021/07/01 02:36:10;;;;;;;8.63;4.57;;;16.60;99.90;;;;;;4983736;28;20425;-82
2021/07/01 02:38:58;;;;;;;5.87;4.40;;;16.60;99.90;;;;;;4999523;28;20731;-81
2021/07/01 02:41:27;;;;;;;5.83;3.60;;;16.60;99.90;;;;;;4975734;28;20445;-82
2021/07/01 02:43:57;;;;;;;4.40;3.70;;;16.50;99.90;;;;;;4980683;28;20473;-82
2021/07/01 02:46:45;;;;;;;5.00;4.27;;;16.50;99.90;;;;;;4996333;28;20435;-81
2021/07/01 02:49:20;;;;;;;6.20;4.50;;;16.50;99.90;;;;;;4980154;28;20394;-81
2021/07/01 02:51:56;;;;;;;6.73;4.90;;;16.70;99.90;;;;;;4982229;28;20469;-80
2021/07/01 02:54:24;;;;;;;5.90;4.33;;;16.70;99.90;;;;;;4983102;28;20434;-81
2021/07/01 02:56:54;;;;;;;7.10;5.03;;;16.70;99.90;;;;;;4979660;28;20413;-85
2021/07/01 02:59:22;;;;;;;5.60;4.07;;;16.70;99.90;;;;;;4997808;28;20455;-81
2021/07/01 03:02:24;;;;;;;4.07;2.77;;;16.60;99.90;;;;;;4986253;28;20432;-80
2021/07/01 03:05:15;;;;;;;4.40;3.60;;;16.50;99.90;;;;;;4989666;28;20446;-81
2021/07/01 03:07:44;;;;;;;5.77;2.90;;;16.50;99.90;;;;;;4980562;28;20405;-82
2021/07/01 03:10:12;;;;;;;4.23;2.80;;;16.40;99.90;;;;;;4972995;28;20525;-85
2021/07/01 03:12:57;;;;;;;4.00;3.40;;;16.30;99.90;;;;;;4966492;28;20436;-83
2021/07/01 03:15:26;;;;;;;3.93;2.60;;;16.40;99.90;;;;;;4975020;28;20409;-85
2021/07/01 03:17:54;;;;;;;2.90;2.30;;;16.30;99.90;;;;;;4976221;28;20489;-84
2021/07/01 03:20:48;;;;;;;3.20;2.50;;;16.40;99.90;;;;;;4993628;28;20488;-82
2021/07/01 03:23:36;;;;;;;2.90;1.97;;;16.30;99.90;;;;;;4963337;28;20432;-85
2021/07/01 03:26:05;;;;;;;1.97;1.70;;;16.10;99.90;;;;;;4962820;28;20443;-82
2021/07/01 03:28:35;;;;;;;2.63;1.97;;;16.00;99.90;;;;;;4981041;28;20736;-84
2021/07/01 03:31:03;;;;;;;2.90;2.53;;;16.00;99.90;;;;;;4964379;28;20473;-82
2021/07/01 03:33:32;;;;;;;4.90;2.30;;;15.90;99.90;;;;;;4966270;28;20421;-84
2021/07/01 03:36:01;;;;;;;3.20;2.00;;;15.80;99.90;;;;;;4965467;28;21093;-84
2021/07/01 03:38:48;;;;;;;2.30;1.80;;;15.80;99.90;;;;;;4981217;28;20792;-83
2021/07/01 03:41:24;;;;;;;2.57;1.97;;;15.80;99.90;;;;;;4965089;28;20513;-83
2021/07/01 03:43:53;;;;;;;2.60;1.80;;;15.70;99.90;;;;;;4963369;28;20410;-84
2021/07/01 03:46:22;;;;;;;2.80;2.10;;;15.70;99.90;;;;;;4963815;28;20436;-84
2021/07/01 03:48:51;;;;;;;2.67;2.00;;;15.80;99.90;;;;;;4963745;28;20494;-84
2021/07/01 03:51:37;;;;;;;3.43;1.57;;;15.90;99.90;;;;;;4978923;28;20433;-84
2021/07/01 03:54:26;;;;;;;4.17;2.07;;;16.20;99.90;;;;;;4968172;28;20438;-83
2021/07/01 03:56:54;;;;;;;2.67;1.40;;;16.10;99.90;;;;;;4960466;28;20426;-82
2021/07/01 03:59:28;;;;;;;2.20;1.67;;;16.10;99.90;;;;;;4960533;28;20446;-83
2021/07/01 04:02:15;;;;;;;1.37;1.27;;;16.00;99.90;;;;;;4978916;28;20510;-82
2021/07/01 04:04:44;;;;;;;1.60;1.40;;;15.80;99.90;;;;;;4962437;28;20423;-85
2021/07/01 04:07:12;;;;;;;1.50;1.23;;;15.80;99.90;;;;;;4960885;28;20439;-82
2021/07/01 04:09:43;;;;;;;2.10;1.83;;;15.80;99.90;;;;;;4961461;28;20529;-84
2021/07/01 04:12:40;;;;;;;1.57;1.13;;;15.80;99.90;;;;;;4966430;28;20462;-84
2021/07/01 04:15:30;;;;;;;1.40;1.30;;;15.70;99.90;;;;;;4977007;28;20478;-83
2021/07/01 04:18:17;;;;;;;1.77;1.10;;;15.60;99.90;;;;;;4977815;28;20426;-83
2021/07/01 04:21:04;;;;;;;2.40;1.07;;;15.60;99.90;;;;;;4976548;28;20463;-82
2021/07/01 04:23:51;;;;;;;1.73;1.20;;;15.60;99.90;;;;;;4977253;28;20482;-85
2021/07/01 04:26:38;;;;;;;1.60;1.50;;;15.50;99.90;;;;;;4988718;28;20463;-81
2021/07/01 04:29:18;;;;;;;1.80;1.27;;;15.50;99.90;;;;;;4981415;28;20423;-80
2021/07/01 04:31:49;;;;;;;2.37;1.77;;;15.50;99.90;;;;;;4982266;28;20426;-79
2021/07/01 04:34:18;;;;;;;1.90;1.40;;;15.60;99.90;;;;;;4981848;28;20643;-81
2021/07/01 04:36:47;;;;;;;2.23;1.43;;;15.60;99.90;;;;;;4982141;28;20422;-80
2021/07/01 04:39:15;;;;;;;1.37;1.00;;;15.60;99.90;;;;;;4981462;28;20398;-79
2021/07/01 04:41:54;;;;;;;2.37;1.07;;;15.60;99.90;;;;;;4982094;28;20525;-79
2021/07/01 04:44:23;;;;;;;2.23;1.30;;;15.60;99.90;;;;;;4981328;28;20429;-79
2021/07/01 04:46:52;;;;;;;1.90;1.07;;;15.50;99.90;;;;;;4981196;28;20429;-81
2021/07/01 04:49:20;;;;;;;1.73;1.47;;;15.50;99.90;;;;;;4961358;28;20419;-83
2021/07/01 04:52:04;;;;;;;2.20;1.10;;;15.50;99.90;;;;;;4960901;28;20458;-84
2021/07/01 04:54:58;;;;;;;3.53;1.90;;;15.40;99.90;;;;;;4960900;28;20443;-84
2021/07/01 04:57:45;;;;;;;7.27;1.53;;;15.40;99.90;;;;;;4975817;28;20382;-85
2021/07/01 05:00:14;;;;;;;1.87;1.67;;;15.40;99.90;;;;;;4957572;28;20524;-85
2021/07/01 05:03:04;;;;;;;1.90;1.47;;;15.40;99.90;;;;;;4975586;28;21017;-85
2021/07/01 05:05:36;;;;;;;2.80;1.37;;;15.50;99.90;;;;;;4958128;28;20508;-83
2021/07/01 05:08:05;;;;;;;2.23;1.83;;;15.50;99.90;;;;;;4959715;28;20417;-84
2021/07/01 05:10:34;;;;;;;2.80;1.33;;;15.40;99.90;;;;;;4958704;28;20505;-85
2021/07/01 05:13:15;;;;;;;1.67;1.20;;;15.30;99.90;;;;;;4975534;28;20405;-82
2021/07/01 05:15:45;;;;;;;1.90;0.80;;;15.30;99.90;;;;;;4957276;28;20814;-84
2021/07/01 05:18:15;;;;;;;3.33;1.30;;;15.30;99.90;;;;;;4962754;28;20442;-86
2021/07/01 05:20:57;;;;;;;0.90;0.70;;;15.40;99.90;;;;;;4963902;28;20541;-84
2021/07/01 05:23:46;;;;;;;2.30;1.90;;;15.40;99.90;;;;;;4980565;28;20452;-85
2021/07/01 05:26:34;;;;;;;1.93;1.27;;;15.50;99.90;;;;;;4980277;28;20460;-84
2021/07/01 05:29:21;;;;;;;1.97;1.50;;;15.50;99.90;;;;;;4988581;28;20454;-83
2021/07/01 05:32:28;;;;;;;1.90;1.50;;;15.50;99.90;;;;;;4993293;28;20425;-85
2021/07/01 05:35:00;;;;;;;14.83;3.93;;;15.50;99.90;;;;;;4995187;28;20486;-85
2021/07/01 05:37:32;;;;;;;2.17;1.43;;;15.50;99.90;;;;;;4974196;28;20450;-85
2021/07/01 05:40:04;;;;;;;1.87;0.90;;;15.40;99.90;;;;;;4966662;28;20512;-86
2021/07/01 05:42:32;;;;;;;2.20;1.30;;;15.30;99.90;;;;;;4984598;28;20607;-85
2021/07/01 05:45:04;;;;;;;2.20;1.43;;;15.20;99.90;;;;;;4967699;28;20481;-85
2021/07/01 05:47:35;;;;;;;2.17;1.97;;;15.30;99.90;;;;;;4967636;28;20458;-85
2021/07/01 05:50:07;;;;;;;1.50;1.13;;;15.30;99.90;;;;;;4965972;28;20773;-84
2021/07/01 05:52:36;;;;;;;2.10;1.20;;;15.20;99.90;;;;;;4965833;28;20807;-87
2021/07/01 05:55:05;;;;;;;1.83;1.60;;;15.20;99.90;;;;;;4972391;28;20416;-88
2021/07/01 05:57:33;;;;;;;2.47;1.40;;;15.20;99.90;;;;;;4979122;28;20433;-88
2021/07/01 06:00:02;;;;;;;7.43;2.27;;;15.30;99.90;;;;;;4965386;28;20441;-87
2021/07/01 06:02:31;;;;;;;1.70;1.40;;;15.30;99.90;;;;;;4966558;28;20454;-87
2021/07/01 06:05:00;;;;;;;1.63;1.40;;;15.30;99.90;;;;;;4966003;28;20525;-85
2021/07/01 06:08:05;;;;;;;1.57;1.10;;;15.30;99.90;;;;;;4951430;28;20774;-88
2021/07/01 06:10:37;;;;;;;1.63;1.13;;;15.30;99.90;;;;;;4966736;28;20470;-88
2021/07/01 06:13:06;;;;;;;1.40;1.13;;;15.30;99.90;;;;;;4966796;28;20432;-87
2021/07/01 06:15:35;;;;;;;1.57;1.27;;;15.40;99.90;;;;;;4967804;28;20524;-86
2021/07/01 06:18:06;;;;;;;1.70;1.00;;;15.30;99.90;;;;;;4964612;28;20489;-86
2021/07/01 06:20:34;;;;;;;1.37;0.80;;;15.30;99.90;;;;;;4980776;28;20902;-87
2021/07/01 06:23:04;;;;;;;1.87;1.20;;;15.40;99.90;;;;;;4964546;28;20973;-85
2021/07/01 06:25:33;;;;;;;1.87;1.27;;;15.40;99.90;;;;;;4963089;28;20883;-84
2021/07/01 06:28:01;;;;;;;1.60;1.20;;;15.40;99.90;;;;;;4963359;28;20546;-85
2021/07/01 06:30:31;;;;;;;1.53;0.90;;;15.50;99.90;;;;;;4980861;28;20433;-85
2021/07/01 06:33:00;;;;;;;1.90;1.47;;;15.40;99.90;;;;;;4963613;28;20478;-86
2021/07/01 06:35:28;;;;;;;1.43;1.17;;;15.40;99.90;;;;;;4962001;28;20486;-86
2021/07/01 06:38:13;;;;;;;1.27;0.80;;;15.30;99.90;;;;;;4962348;28;20417;-84
2021/07/01 06:41:03;;;;;;;1.50;1.20;;;15.20;99.90;;;;;;4980215;28;20513;-86
2021/07/01 06:43:51;;;;;;;1.63;1.20;;;15.10;99.90;;;;;;4986749;28;20430;-82
2021/07/01 06:46:40;;;;;;;1.97;1.47;;;15.20;99.90;;;;;;4999616;28;20420;-82
2021/07/01 06:49:30;;;;;;;1.67;1.57;;;15.20;99.90;;;;;;5000607;28;20543;-83
2021/07/01 06:52:18;;;;;;;1.40;1.10;;;15.20;99.90;;;;;;4987391;28;20419;-87
2021/07/01 06:55:08;;;;;;;2.90;1.90;;;15.30;99.90;;;;;;4980995;28;20404;-84
2021/07/01 06:57:55;;;;;;;2.43;1.87;;;15.20;99.90;;;;;;4965096;28;20429;-88
2021/07/01 07:00:24;;;;;;;1.97;1.30;;;15.30;99.90;;;;;;4965002;28;21018;-85
2021/07/01 07:02:53;;;;;;;2.30;1.90;;;15.30;99.90;;;;;;4963483;28;20479;-87
2021/07/01 07:05:22;;;;;;;2.77;1.63;;;15.30;99.90;;;;;;4963980;28;20423;-86
2021/07/01 07:07:51;;;;;;;2.30;1.50;;;15.40;99.90;;;;;;4964017;28;20482;-86
2021/07/01 07:10:23;;;;;;;2.80;1.80;;;15.30;99.90;;;;;;4963800;28;20467;-87
2021/07/01 07:12:54;;;;;;;1.73;1.50;;;15.30;99.90;;;;;;4963093;28;20418;-86
2021/07/01 07:15:28;;;;;;;2.13;1.30;;;15.30;99.90;;;;;;4964161;28;20446;-86
2021/07/01 07:18:01;;;;;;;2.10;1.57;;;15.40;99.90;;;;;;4964490;28;20446;-87
2021/07/01 07:20:31;;;;;;;8.50;2.90;;;15.40;99.90;;;;;;4964386;28;20445;-87
2021/07/01 07:23:04;;;;;;;3.13;1.73;;;15.60;99.90;;;;;;4963477;28;20481;-88
2021/07/01 07:25:39;;;;;;;2.33;1.47;;;15.60;99.90;;;;;;4982235;28;20892;-88
2021/07/01 07:28:10;;;;;;;2.47;1.90;;;15.50;99.90;;;;;;4964617;28;20431;-86
2021/07/01 07:30:39;;;;;;;3.37;1.40;;;15.50;99.90;;;;;;4969102;28;20446;-88
2021/07/01 07:33:09;;;;;;;11.13;1.60;;;15.50;99.90;;;;;;4982946;28;20410;-88
2021/07/01 07:35:38;;;;;;;2.90;1.37;;;15.60;99.90;;;;;;4983582;28;20427;-84
2021/07/01 07:38:09;;;;;;;2.37;1.10;;;15.60;99.90;;;;;;4965184;28;20431;-86
2021/07/01 07:40:40;;;;;;;1.50;1.17;;;15.60;99.90;;;;;;4965180;28;20488;-88
2021/07/01 07:43:10;;;;;;;2.50;1.40;;;15.60;99.90;;;;;;4966801;28;20810;-84
2021/07/01 07:45:39;;;;;;;2.70;1.47;;;15.80;99.90;;;;;;4970663;28;20410;-83
2021/07/01 07:48:08;;;;;;;1.90;1.50;;;16.00;99.90;;;;;;4979246;28;20414;-84
2021/07/01 07:50:39;;;;;;;2.47;1.63;;;16.00;99.90;;;;;;4981729;28;20450;-83
2021/07/01 07:53:11;;;;;;;1.67;1.20;;;16.00;99.90;;;;;;4981349;28;20405;-81
2021/07/01 07:55:42;;;;;;;1.80;1.20;;;15.90;99.90;;;;;;4979470;28;20440;-85
2021/07/01 07:58:14;;;;;;;1.63;1.23;;;15.90;99.90;;;;;;4961949;28;20432;-85
2021/07/01 08:00:43;;;;;;;1.23;0.90;;;15.90;99.90;;;;;;4979942;28;20828;-87
2021/07/01 08:03:13;;;;;;;2.07;1.10;;;15.90;99.90;;;;;;4962829;28;21007;-86
2021/07/01 08:05:42;;;;;;;1.43;0.97;;;15.70;99.90;;;;;;4964324;28;20437;-85
2021/07/01 08:08:15;;;;;;;1.80;1.27;;;15.50;99.90;;;;;;4977949;28;20417;-84
2021/07/01 08:10:46;;;;;;;1.30;1.00;;;15.60;99.90;;;;;;4980325;28;20488;-83
2021/07/01 08:13:15;;;;;;;1.03;0.80;;;15.60;99.90;;;;;;4981080;28;20466;-84
2021/07/01 08:15:43;;;;;;;1.50;0.80;;;15.70;99.90;;;;;;4998434;28;20477;-84
2021/07/01 08:18:21;;;;;;;1.30;1.00;;;15.80;99.90;;;;;;4982095;28;20426;-85
2021/07/01 08:20:49;;;;;;;2.70;1.30;;;15.80;99.90;;;;;;4993439;23;20453;-68
2021/07/01 08:23:19;;;;;;;1.90;1.00;;;15.90;99.90;;;;;;4970949;28;20465;-69
2021/07/01 08:25:49;;;;;;;1.50;1.13;;;15.80;99.90;;;;;;4970981;28;20393;-69
2021/07/01 08:28:20;;;;;;;2.13;1.20;;;15.90;99.90;;;;;;4971079;28;20431;-69
2021/07/01 08:30:48;;;;;;;1.40;0.80;;;15.80;99.90;;;;;;4971217;28;20425;-69
2021/07/01 08:33:20;;;;;;;2.27;1.13;;;15.80;99.90;;;;;;4969837;28;20413;-69
2021/07/01 08:35:55;;;;;;;5.07;2.90;;;16.00;99.90;;;;;;4971129;28;20419;-69
2021/07/01 08:38:25;;;;;;;2.13;1.70;;;16.30;99.90;;;;;;4971090;28;20397;-69
2021/07/01 08:41:00;;;;;;;3.47;2.00;;;16.20;99.90;;;;;;4971163;28;20449;-68
2021/07/01 08:43:40;;;;;;;1.80;1.60;;;16.00;99.90;;;;;;4971540;28;20444;-68
2021/07/01 08:46:13;;;;;;;2.03;1.40;;;15.70;99.90;;;;;;4974087;28;20453;-68
2021/07/01 08:48:57;;;;;;;1.60;1.20;;;15.70;99.90;;;;;;4972943;28;20409;-68
2021/07/01 08:51:29;;;;;;;3.00;1.73;;;15.90;99.90;;;;;;4968531;28;20542;-68
2021/07/01 08:54:14;;;;;;;2.70;2.00;;;15.90;99.90;;;;;;4959796;28;20613;-68
2021/07/01 08:56:45;;;;;;;1.40;1.30;;;15.70;99.90;;;;;;4951433;29;20402;-68
2021/07/01 08:59:14;;;;;;;1.30;1.00;;;15.60;99.90;;;;;;4950441;29;20410;-68
2021/07/01 09:01:42;;;;;;;1.97;1.33;;;15.60;99.90;;;;;;4952057;29;20430;-69
2021/07/01 09:04:13;;;;;;;1.67;1.47;;;15.60;99.90;;;;;;4978253;28;20452;-69
2021/07/01 09:06:42;;;;;;;1.40;1.23;;;15.80;99.90;;;;;;4956635;28;20563;-68
2021/07/01 09:09:12;;;;;;;1.40;1.00;;;15.80;99.90;;;;;;4969996;28;20410;-69
2021/07/01 09:11:41;;;;;;;1.63;1.40;;;15.80;99.90;;;;;;4970714;28;20443;-68
2021/07/01 09:14:11;;;;;;;2.30;2.00;;;15.80;99.90;;;;;;4979567;28;20424;-68
2021/07/01 09:16:40;;;;;;;2.03;1.67;;;15.70;99.90;;;;;;4988710;28;20803;-68
2021/07/01 09:19:08;;;;;;;2.27;2.07;;;15.60;99.90;;;;;;4970304;28;20774;-68
2021/07/01 09:21:37;;;;;;;2.73;2.10;;;15.60;99.90;;;;;;4973800;28;20467;-67
2021/07/01 09:24:05;;;;;;;2.60;2.10;;;15.60;99.90;;;;;;4989593;28;20473;-68
2021/07/01 09:26:33;;;;;;;2.30;1.60;;;15.50;99.90;;;;;;4989570;28;20956;-68
2021/07/01 09:29:02;;;;;;;2.10;1.73;;;15.50;99.90;;;;;;4972222;28;20417;-69
2021/07/01 09:31:34;;;;;;;2.53;1.90;;;15.60;99.90;;;;;;4989131;28;20443;-67
2021/07/01 09:34:03;;;;;;;2.67;2.47;;;15.50;99.90;;;;;;4989658;28;20446;-67
2021/07/01 09:36:31;;;;;;;2.40;2.20;;;15.50;99.90;;;;;;4988834;28;20800;-68
2021/07/01 09:39:02;;;;;;;3.13;1.63;;;15.50;99.90;;;;;;4986620;28;20442;-69
2021/07/01 09:41:30;;;;;;;2.80;2.20;;;15.70;99.90;;;;;;4969859;28;20439;-68
2021/07/01 09:44:01;;;;;;;3.00;2.20;;;15.80;99.90;;;;;;4970643;28;20965;-68
2021/07/01 09:46:33;;;;;;;2.00;1.80;;;15.80;99.90;;;;;;4969391;28;20413;-69
2021/07/01 09:49:07;;;;;;;6.30;2.73;;;16.00;99.90;;;;;;4970568;28;20448;-69
2021/07/01 09:51:38;;;;;;;2.70;2.27;;;15.90;99.90;;;;;;4969996;28;21003;-68
2021/07/01 09:54:10;;;;;;;2.20;2.00;;;15.90;99.90;;;;;;4973170;28;20743;-68
2021/07/01 09:56:41;;;;;;;4.70;1.80;;;15.90;99.90;;;;;;4988892;28;20459;-68
2021/07/01 09:59:15;;;;;;;4.77;3.63;;;15.60;99.90;;;;;;4988451;28;20456;-69
2021/07/01 10:01:44;;;;;;;3.80;2.60;;;15.70;99.90;;;;;;4969940;28;20439;-69
2021/07/01 10:04:13;;;;;;;4.47;2.83;;;15.80;99.90;;;;;;4970531;28;20497;-69
2021/07/01 10:06:42;;;;;;;4.43;3.27;;;15.70;99.90;;;;;;4969352;28;20401;-67
2021/07/01 10:09:28;;;;;;;3.63;3.30;;;15.60;99.90;;;;;;4970316;28;20405;-69
2021/07/01 10:11:56;;;;;;;2.90;2.60;;;15.60;99.90;;;;;;4969327;28;20458;-69
2021/07/01 10:14:26;;;;;;;4.40;3.60;;;15.70;99.90;;;;;;4970154;28;20439;-69
2021/07/01 10:17:06;;;;;;;8.50;7.20;;;15.80;99.90;;;;;;4968796;28;20437;-69
2021/07/01 10:19:35;;;;;;;3.40;2.90;;;15.80;99.90;;;;;;4970506;28;20435;-68
2021/07/01 10:22:05;;;;;;;3.97;3.57;;;15.80;99.90;;;;;;4972906;28;20508;-69
2021/07/01 10:24:35;;;;;;;3.93;3.50;;;15.90;99.90;;;;;;4973456;28;20463;-68
2021/07/01 10:27:04;;;;;;;4.17;3.77;;;16.00;99.90;;;;;;4972505;28;20737;-68
2021/07/01 10:29:38;;;;;;;3.83;3.20;;;16.10;99.90;;;;;;4973700;28;20433;-69
2021/07/01 10:32:09;;;;;;;3.93;3.53;;;16.20;99.90;;;;;;4973004;28;20797;-69
2021/07/01 10:34:48;;;;;;;3.73;3.33;;;15.80;99.90;;;;;;4973783;28;20397;-68
2021/07/01 10:37:20;;;;;;;4.70;3.23;;;15.90;99.90;;;;;;4972954;28;20504;-68
2021/07/01 10:39:50;;;;;;;4.57;3.53;;;16.00;99.90;;;;;;4973129;28;20480;-69
2021/07/01 10:42:19;;;;;;;3.90;3.60;;;16.10;99.90;;;;;;4972181;28;20966;-69
2021/07/01 10:44:47;;;;;;;4.33;3.93;;;16.20;99.90;;;;;;4973205;28;20536;-69
2021/07/01 10:47:28;;;;;;;3.27;2.87;;;16.30;99.90;;;;;;4973781;28;20405;-69
2021/07/01 10:49:58;;;;;;;4.43;3.77;;;16.40;99.90;;;;;;4973325;28;20883;-69
2021/07/01 10:52:37;;;;;;;4.10;3.77;;;16.20;99.90;;;;;;4973759;28;20786;-69
2021/07/01 10:55:07;;;;;;;4.70;4.30;;;16.20;99.90;;;;;;4973561;28;20401;-69
2021/07/01 10:57:47;;;;;;;3.60;3.30;;;16.20;99.90;;;;;;4970857;28;20433;-69
2021/07/01 11:00:17;;;;;;;4.40;4.00;;;16.20;99.90;;;;;;4970467;28;20822;-68
2021/07/01 11:02:51;;;;;;;4.50;4.10;;;16.00;99.90;;;;;;4970318;28;20405;-68
2021/07/01 11:05:35;;;;;;;4.13;3.27;;;15.90;99.90;;;;;;4972887;28;20448;-69
2021/07/01 11:08:05;;;;;;;5.17;4.33;;;16.10;99.90;;;;;;4968648;28;20433;-69
2021/07/01 11:10:34;;;;;;;3.80;3.50;;;16.20;99.90;;;;;;4973396;28;20450;-68
2021/07/01 11:13:10;;;;;;;4.27;3.77;;;16.30;99.90;;;;;;4973007;28;20413;-69
2021/07/01 11:16:02;;;;;;;4.40;4.00;;;16.20;99.90;;;;;;4973434;28;20422;-69
2021/07/01 11:18:37;;;;;;;4.13;3.63;;;16.20;99.90;;;;;;4973327;28;20758;-69
2021/07/01 11:21:10;;;;;;;4.33;3.93;;;16.30;99.90;;;;;;4973712;28;20444;-68
2021/07/01 11:23:40;;;;;;;4.20;3.80;;;16.20;99.90;;;;;;4973073;28;21026;-69
2021/07/01 11:26:25;;;;;;;4.50;3.97;;;16.20;99.90;;;;;;4972611;28;20572;-69
2021/07/01 11:28:55;;;;;;;5.50;4.83;;;16.10;99.90;;;;;;4972503;28;20406;-69
2021/07/01 11:31:38;;;;;;;5.83;4.67;;;16.00;99.90;;;;;;4972958;28;20541;-69
2021/07/01 11:34:09;;;;;;;5.93;4.90;;;16.10;99.90;;;;;;4972252;28;20397;-68
2021/07/01 11:36:39;;;;;;;5.63;4.70;;;16.00;99.90;;;;;;4972509;28;20789;-68
2021/07/01 11:39:11;;;;;;;5.90;4.00;;;16.10;99.90;;;;;;4972389;28;20413;-68
2021/07/01 11:41:41;;;;;;;5.13;4.60;;;16.20;99.90;;;;;;4972919;28;20436;-69
2021/07/01 11:44:11;;;;;;;5.30;4.80;;;16.20;99.90;;;;;;4972410;28;20557;-69
2021/07/01 11:46:40;;;;;;;6.00;4.80;;;16.30;99.90;;;;;;4972734;28;20400;-68
2021/07/01 11:49:11;;;;;;;6.20;5.60;;;16.30;99.90;;;;;;4972649;28;20410;-69
2021/07/01 11:51:40;;;;;;;6.03;4.60;;;16.30;99.90;;;;;;4972532;28;20443;-70
2021/07/01 11:54:09;;;;;;;6.10;5.47;;;16.20;99.90;;;;;;4972037;28;20449;-70
2021/07/01 11:56:55;;;;;;;5.80;4.50;;;16.20;99.90;;;;;;4971200;28;20544;-70
2021/07/01 11:59:27;;;;;;;5.70;5.23;;;16.40;99.90;;;;;;4972220;28;20899;-67
2021/07/01 12:01:56;;;;;;;5.73;5.00;;;16.70;99.90;;;;;;4973002;28;20449;-67
2021/07/01 12:04:32;;;;;;;4.80;4.40;;;16.90;99.90;;;;;;4972430;28;20837;-69
2021/07/01 12:07:08;;;;;;;6.10;5.50;;;16.90;99.90;;;;;;4972270;28;20429;-69
2021/07/01 12:09:39;;;;;;;6.20;5.60;;;16.90;99.90;;;;;;4971960;28;20406;-69
2021/07/01 12:12:17;;;;;;;6.30;4.70;;;16.90;99.90;;;;;;4972539;28;20409;-69
2021/07/01 12:14:47;;;;;;;6.27;5.67;;;16.90;99.90;;;;;;4971865;28;20397;-68
2021/07/01 12:17:53;;;;;;;6.37;5.70;;;16.90;99.90;;;;;;4972149;28;20918;-69
2021/07/01 12:20:37;;;;;;;7.80;7.00;;;16.80;99.90;;;;;;4971581;28;20434;-68
2021/07/01 12:23:20;;;;;;;7.17;6.47;;;16.80;99.90;;;;;;4954562;28;20412;-69
2021/07/01 12:25:50;;;;;;;6.20;5.53;;;16.60;99.90;;;;;;4971639;28;21002;-69
2021/07/01 12:28:23;;;;;;;7.00;6.30;;;16.60;99.90;;;;;;4972254;28;20909;-69
2021/07/01 12:30:58;;;;;;;6.73;6.00;;;16.90;99.90;;;;;;4971513;28;20454;-67
2021/07/01 12:33:42;;;;;;;7.93;6.23;;;17.20;99.90;;;;;;4972122;28;20433;-68
2021/07/01 12:36:21;;;;;;;6.53;5.90;;;17.50;99.90;;;;;;4971109;28;20532;-68
2021/07/01 12:39:24;;;;;;;8.77;5.53;;;17.60;99.90;;;;;;4971706;28;20474;-68
2021/07/01 12:41:58;;;;;;;11.73;6.07;;;17.70;99.90;;;;;;4975874;28;20430;-68
2021/07/01 12:44:31;;;;;;;7.93;7.13;;;18.00;99.90;;;;;;4982740;28;20436;-69
2021/07/01 12:47:07;;;;;;;6.60;5.90;;;18.00;99.90;;;;;;4990853;28;20837;-69
2021/07/01 12:50:07;;;;;;;6.33;5.20;;;18.00;99.90;;;;;;4991550;28;20465;-68
2021/07/01 12:52:42;;;;;;;6.33;5.40;;;18.10;99.90;;;;;;4986610;28;20423;-69
2021/07/01 12:55:26;;;;;;;7.60;5.80;;;17.90;99.90;;;;;;4960077;28;20413;-69
2021/07/01 12:57:55;;;;;;;5.67;5.17;;;17.80;99.90;;;;;;4975416;28;20405;-69
2021/07/01 13:00:23;;;;;;;7.30;5.40;;;17.90;99.90;;;;;;4971482;28;20504;-69
2021/07/01 13:03:04;;;;;;;7.37;5.77;;;18.10;99.90;;;;;;4953854;28;20474;-69
2021/07/01 13:05:38;;;;;;;5.83;5.33;;;18.10;99.90;;;;;;4952259;29;20471;-69
2021/07/01 13:08:08;;;;;;;6.57;6.00;;;18.00;99.90;;;;;;4952257;29;20393;-69
2021/07/01 13:10:37;;;;;;;5.70;5.20;;;17.90;99.90;;;;;;4963627;28;20972;-68
2021/07/01 13:13:05;;;;;;;5.17;4.33;;;18.20;99.90;;;;;;4971561;28;20397;-69
2021/07/01 13:15:34;;;;;;;7.90;6.03;;;18.50;99.90;;;;;;4970674;28;20436;-69
2021/07/01 13:18:03;;;;;;;4.63;4.03;;;18.40;99.90;;;;;;4971969;28;20397;-68
2021/07/01 13:20:32;;;;;;;4.93;4.43;;;18.40;99.90;;;;;;4953249;28;20441;-68